createdAt,value
2017-11-26T00:03:47.190Z,5.33
2017-11-26T00:06:13.423Z,5.29
2017-11-26T00:08:39.773Z,5.27
2017-11-26T00:11:06.022Z,5.31
2017-11-26T00:13:32.244Z,5.30
2017-11-26T00:15:58.505Z,5.30
2017-11-26T00:18:24.742Z,5.26
2017-11-26T00:20:50.983Z,5.24
2017-11-26T00:23:17.256Z,5.25
2017-11-26T00:25:44.456Z,5.27
2017-11-26T00:28:10.801Z,5.32
2017-11-26T00:30:37.072Z,5.32
2017-11-26T00:33:03.324Z,5.32
2017-11-26T00:35:29.744Z,5.37
2017-11-26T00:37:56.045Z,5.41
2017-11-26T00:40:22.269Z,5.45
2017-11-26T00:42:48.488Z,5.48
2017-11-26T00:45:14.745Z,5.54
2017-11-26T00:47:41.082Z,5.52
2017-11-26T00:50:07.336Z,5.44
2017-11-26T00:52:33.643Z,5.41
2017-11-26T00:54:59.878Z,5.42
2017-11-26T00:57:26.124Z,5.50
2017-11-26T00:59:52.386Z,5.54
2017-11-26T01:02:18.617Z,5.43
2017-11-26T01:04:44.852Z,5.43
2017-11-26T01:07:11.113Z,5.42
2017-11-26T01:09:37.344Z,5.35
2017-11-26T01:12:03.571Z,5.31
2017-11-26T01:14:29.812Z,5.29
2017-11-26T01:16:56.041Z,5.30
2017-11-26T01:19:22.259Z,5.34
2017-11-26T01:21:48.686Z,5.34
2017-11-26T01:24:14.932Z,5.33
2017-11-26T01:26:41.142Z,5.33
2017-11-26T01:29:07.394Z,5.32
2017-11-26T01:31:33.638Z,5.31
2017-11-26T01:33:59.889Z,5.38
2017-11-26T01:36:26.182Z,5.42
2017-11-26T01:38:52.404Z,5.37
2017-11-26T01:41:18.644Z,5.37
2017-11-26T01:43:44.927Z,5.44
2017-11-26T01:46:11.168Z,5.46
2017-11-26T01:48:37.408Z,5.51
2017-11-26T01:51:03.681Z,5.53
2017-11-26T01:53:29.919Z,5.54
2017-11-26T01:55:56.150Z,5.54
2017-11-26T01:58:22.494Z,5.54
2017-11-26T02:00:48.749Z,5.59
2017-11-26T02:03:15.078Z,5.59
2017-11-26T02:05:41.337Z,5.58
2017-11-26T02:08:07.632Z,5.60
2017-11-26T02:10:33.864Z,5.58
2017-11-26T02:13:00.153Z,5.52
2017-11-26T02:15:26.512Z,5.52
2017-11-26T02:17:52.744Z,5.49
2017-11-26T02:20:19.028Z,5.46
2017-11-26T02:22:45.280Z,5.51
2017-11-26T02:25:11.643Z,5.55
2017-11-26T02:27:38.293Z,5.51
2017-11-26T02:30:04.530Z,5.49
2017-11-26T02:32:30.778Z,5.48
2017-11-26T02:34:57.051Z,5.53
2017-11-26T02:37:23.297Z,5.53
2017-11-26T02:39:49.558Z,5.48
2017-11-26T02:42:15.816Z,5.41
2017-11-26T02:44:42.058Z,5.41
2017-11-26T02:47:08.431Z,5.44
2017-11-26T02:49:34.718Z,5.21
2017-11-26T02:52:01.069Z,5.22
2017-11-26T02:54:27.300Z,5.22
2017-11-26T02:56:53.559Z,5.24
2017-11-26T02:59:19.838Z,5.26
2017-11-26T03:01:46.077Z,5.24
2017-11-26T03:04:12.351Z,5.22
2017-11-26T03:06:38.583Z,5.19
2017-11-26T03:09:04.824Z,5.16
2017-11-26T03:11:31.105Z,5.20
2017-11-26T03:13:57.348Z,5.21
2017-11-26T03:16:23.572Z,5.18
2017-11-26T03:18:49.874Z,5.11
2017-11-26T03:21:16.126Z,5.06
2017-11-26T03:23:42.375Z,5.07
2017-11-26T03:26:08.635Z,5.00
2017-11-26T03:28:34.887Z,4.81
2017-11-26T03:31:01.118Z,4.55
2017-11-26T03:33:27.423Z,4.53
2017-11-26T03:35:53.652Z,4.55
2017-11-26T03:38:19.904Z,4.61
2017-11-26T03:40:46.254Z,4.67
2017-11-26T03:43:12.478Z,4.63
2017-11-26T03:45:38.703Z,4.63
2017-11-26T03:48:04.962Z,4.57
2017-11-26T03:50:31.191Z,4.55
2017-11-26T03:52:57.440Z,4.43
2017-11-26T03:55:23.861Z,4.43
2017-11-26T03:57:50.097Z,4.42
2017-11-26T04:00:16.323Z,4.45
2017-11-26T04:02:42.586Z,4.40
2017-11-26T04:05:08.816Z,4.27
2017-11-26T04:07:35.054Z,4.17
2017-11-26T04:10:01.335Z,4.11
2017-11-26T04:12:27.593Z,4.14
2017-11-26T04:14:53.808Z,4.12
2017-11-26T04:17:20.089Z,4.10
2017-11-26T04:19:46.346Z,4.01
2017-11-26T04:22:12.573Z,3.99
2017-11-26T04:24:39.017Z,3.98
2017-11-26T04:27:05.254Z,4.03
2017-11-26T04:29:31.498Z,4.02
2017-11-26T04:31:57.770Z,3.96
2017-11-26T04:34:23.995Z,3.94
2017-11-26T04:36:50.220Z,3.93
2017-11-26T04:39:16.492Z,4.00
2017-11-26T04:41:42.729Z,3.98
2017-11-26T04:44:08.951Z,4.09
2017-11-26T04:46:35.229Z,3.96
2017-11-26T04:49:01.463Z,4.01
2017-11-26T04:51:27.701Z,3.94
2017-11-26T04:53:53.978Z,3.82
2017-11-26T04:56:20.212Z,3.82
2017-11-26T04:58:46.429Z,3.83
2017-11-26T05:01:12.691Z,3.76
2017-11-26T05:03:38.919Z,3.71
2017-11-26T05:06:05.161Z,3.72
2017-11-26T05:08:31.458Z,3.75
2017-11-26T05:10:57.676Z,3.71
2017-11-26T05:13:23.917Z,3.74
2017-11-26T05:15:50.198Z,3.70
2017-11-26T05:18:16.425Z,3.66
2017-11-26T05:20:42.668Z,3.57
2017-11-26T05:23:08.931Z,3.59
2017-11-26T05:25:35.161Z,3.63
2017-11-26T05:28:01.407Z,3.51
2017-11-26T05:30:27.659Z,3.50
2017-11-26T05:32:53.880Z,3.55
2017-11-26T05:35:20.104Z,3.58
2017-11-26T05:37:46.379Z,3.48
2017-11-26T05:40:12.606Z,3.36
2017-11-26T05:42:38.849Z,3.37
2017-11-26T05:45:05.127Z,3.30
2017-11-26T05:47:31.372Z,3.33
2017-11-26T05:49:57.620Z,3.27
2017-11-26T05:52:23.877Z,3.30
2017-11-26T05:54:50.103Z,3.33
2017-11-26T05:57:16.328Z,3.40
2017-11-26T05:59:42.625Z,3.35
2017-11-26T06:02:08.868Z,3.37
2017-11-26T06:04:35.100Z,3.41
2017-11-26T06:07:01.360Z,3.41
2017-11-26T06:09:27.589Z,3.38
2017-11-26T06:11:53.815Z,3.41
2017-11-26T06:14:20.073Z,3.48
2017-11-26T06:16:46.302Z,3.53
2017-11-26T06:19:12.529Z,3.64
2017-11-26T06:21:38.804Z,3.68
2017-11-26T06:24:05.062Z,3.73
2017-11-26T06:26:31.285Z,3.71
2017-11-26T06:28:57.551Z,3.69
2017-11-26T06:31:23.784Z,3.75
2017-11-26T06:33:50.152Z,3.77
2017-11-26T06:36:16.428Z,3.78
2017-11-26T06:38:42.657Z,3.79
2017-11-26T06:41:08.929Z,3.77
2017-11-26T06:43:35.212Z,3.80
2017-11-26T06:46:01.449Z,3.89
2017-11-26T06:48:27.689Z,3.96
2017-11-26T06:50:53.968Z,4.04
2017-11-26T06:53:20.202Z,4.13
2017-11-26T06:55:46.445Z,4.25
2017-11-26T06:58:12.735Z,4.23
2017-11-26T07:00:38.957Z,4.23
2017-11-26T07:03:05.175Z,4.18
2017-11-26T07:05:31.445Z,4.20
2017-11-26T07:07:57.695Z,4.16
2017-11-26T07:10:23.916Z,4.07
2017-11-26T07:12:50.177Z,4.09
2017-11-26T07:15:16.422Z,4.19
2017-11-26T07:17:42.675Z,4.22
2017-11-26T07:20:08.932Z,4.11
2017-11-26T07:22:35.167Z,4.08
2017-11-26T07:25:01.406Z,4.36
2017-11-26T07:27:27.661Z,4.22
2017-11-26T07:29:53.893Z,4.26
2017-11-26T07:32:20.108Z,4.51
2017-11-26T07:34:46.468Z,4.50
2017-11-26T07:37:12.715Z,4.63
2017-11-26T07:39:38.959Z,4.63
2017-11-26T07:42:05.242Z,4.76
2017-11-26T07:44:31.470Z,4.91
2017-11-26T07:46:57.804Z,4.97
2017-11-26T07:49:24.080Z,4.94
2017-11-26T07:51:50.308Z,5.09
2017-11-26T07:54:16.546Z,5.22
2017-11-26T07:56:42.814Z,5.36
2017-11-26T07:59:09.048Z,5.49
2017-11-26T08:01:35.286Z,5.60
2017-11-26T08:04:01.552Z,5.60
2017-11-26T08:06:27.780Z,5.71
2017-11-26T08:08:54.026Z,5.78
2017-11-26T08:11:20.297Z,5.77
2017-11-26T08:13:46.512Z,5.82
2017-11-26T08:16:12.750Z,5.79
2017-11-26T08:18:39.012Z,5.73
2017-11-26T08:21:05.300Z,5.78
2017-11-26T08:23:31.520Z,5.14
2017-11-26T08:25:57.899Z,5.54
2017-11-26T08:28:24.129Z,5.38
2017-11-26T08:30:50.369Z,6.00
2017-11-26T08:33:16.633Z,6.09
2017-11-26T08:35:43.045Z,6.17
2017-11-26T08:38:09.272Z,6.13
2017-11-26T08:40:35.547Z,6.01
2017-11-26T08:43:01.791Z,6.06
2017-11-26T08:45:28.015Z,6.24
2017-11-26T08:47:54.301Z,6.41
2017-11-26T08:50:20.547Z,6.55
2017-11-26T08:52:46.779Z,6.58
2017-11-26T08:55:13.048Z,6.59
2017-11-26T08:57:39.301Z,6.80
2017-11-26T09:00:05.715Z,6.85
2017-11-26T09:02:31.994Z,7.30
2017-11-26T09:04:58.371Z,7.54
2017-11-26T09:07:24.642Z,7.72
2017-11-26T09:09:50.916Z,7.91
2017-11-26T09:12:17.166Z,8.05
2017-11-26T09:14:43.410Z,8.12
2017-11-26T09:17:09.693Z,8.24
2017-11-26T09:19:35.957Z,8.40
2017-11-26T09:22:02.189Z,8.50
2017-11-26T09:24:28.448Z,8.54
2017-11-26T09:26:54.685Z,8.24
2017-11-26T09:29:20.963Z,8.26
2017-11-26T09:31:47.275Z,7.97
2017-11-26T09:34:13.531Z,8.15
2017-11-26T09:36:39.777Z,8.52
2017-11-26T09:39:06.052Z,8.78
2017-11-26T09:41:32.283Z,8.90
2017-11-26T09:43:58.484Z,9.23
2017-11-26T09:46:24.745Z,9.51
2017-11-26T09:48:50.983Z,9.54
2017-11-26T09:51:17.200Z,9.49
2017-11-26T09:53:43.465Z,9.67
2017-11-26T09:56:09.669Z,9.71
2017-11-26T09:58:35.887Z,10.17
2017-11-26T10:01:02.161Z,10.40
2017-11-26T10:03:28.405Z,10.57
2017-11-26T10:05:54.648Z,10.34
2017-11-26T10:08:20.906Z,9.80
2017-11-26T10:10:47.122Z,10.05
2017-11-26T10:13:13.334Z,10.16
2017-11-26T10:15:39.625Z,10.02
2017-11-26T10:18:05.852Z,10.28
2017-11-26T10:20:32.087Z,10.16
2017-11-26T10:22:58.364Z,10.29
2017-11-26T10:25:24.606Z,10.06
2017-11-26T10:27:50.829Z,9.87
2017-11-26T10:30:17.092Z,10.08
2017-11-26T10:32:43.326Z,10.19
2017-11-26T10:35:09.551Z,10.04
2017-11-26T10:37:35.838Z,9.94
2017-11-26T10:40:02.071Z,10.01
2017-11-26T10:42:28.304Z,10.20
2017-11-26T10:44:54.669Z,9.83
2017-11-26T10:47:20.926Z,10.17
2017-11-26T10:49:47.168Z,10.24
2017-11-26T10:52:13.451Z,10.34
2017-11-26T10:54:39.701Z,10.10
2017-11-26T10:57:05.935Z,10.19
2017-11-26T10:59:32.199Z,10.30
2017-11-26T11:01:58.412Z,10.23
2017-11-26T11:04:24.686Z,10.36
2017-11-26T11:06:51.000Z,10.00
2017-11-26T11:09:17.236Z,9.40
2017-11-26T11:11:43.469Z,9.56
2017-11-26T11:14:09.726Z,9.63
2017-11-26T11:16:35.935Z,9.47
2017-11-26T11:19:02.159Z,9.62
2017-11-26T11:21:28.428Z,9.61
2017-11-26T11:23:54.808Z,9.59
2017-11-26T11:26:21.052Z,9.33
2017-11-26T11:28:47.302Z,9.31
2017-11-26T11:31:13.529Z,9.42
2017-11-26T11:33:39.746Z,9.38
2017-11-26T11:36:06.016Z,9.50
2017-11-26T11:38:32.271Z,9.55
2017-11-26T11:40:58.492Z,9.35
2017-11-26T11:43:24.703Z,8.84
2017-11-26T11:45:50.980Z,9.28
2017-11-26T11:48:17.225Z,9.36
2017-11-26T11:50:43.553Z,9.19
2017-11-26T11:53:09.985Z,9.07
2017-11-26T11:55:36.210Z,9.18
2017-11-26T11:58:02.434Z,9.14
2017-11-26T12:00:28.721Z,9.23
2017-11-26T12:02:54.955Z,9.32
2017-11-26T12:05:21.340Z,9.18
2017-11-26T12:07:47.607Z,8.98
2017-11-26T12:10:13.824Z,8.69
2017-11-26T12:12:40.047Z,8.92
2017-11-26T12:15:06.324Z,9.10
2017-11-26T12:17:32.546Z,9.26
2017-11-26T12:19:58.912Z,9.26
2017-11-26T12:22:25.169Z,9.20
2017-11-26T12:24:51.404Z,9.10
2017-11-26T12:27:17.649Z,9.17
2017-11-26T12:29:43.919Z,9.17
2017-11-26T12:32:10.184Z,9.21
2017-11-26T12:34:36.397Z,9.11
2017-11-26T12:37:02.656Z,9.14
2017-11-26T12:39:28.934Z,9.19
2017-11-26T12:41:55.182Z,9.26
2017-11-26T12:44:21.453Z,9.23
2017-11-26T12:46:47.667Z,9.27
2017-11-26T12:49:13.905Z,9.24
2017-11-26T12:51:40.190Z,9.15
2017-11-26T12:54:06.527Z,9.13
2017-11-26T12:56:32.760Z,9.00
2017-11-26T12:58:59.042Z,8.92
2017-11-26T13:01:25.270Z,8.82
2017-11-26T13:03:51.511Z,8.80
2017-11-26T13:06:17.764Z,8.83
2017-11-26T13:08:44.001Z,8.84
2017-11-26T13:11:10.229Z,8.73
2017-11-26T13:13:36.491Z,8.24
2017-11-26T13:16:02.737Z,8.31
2017-11-26T13:18:29.007Z,8.33
2017-11-26T13:20:55.281Z,8.19
2017-11-26T13:23:21.530Z,8.08
2017-11-26T13:25:47.805Z,8.11
2017-11-26T13:28:14.099Z,8.06
2017-11-26T13:30:40.328Z,7.92
2017-11-26T13:33:06.591Z,7.83
2017-11-26T13:35:32.837Z,7.83
2017-11-26T13:37:59.070Z,7.52
2017-11-26T13:40:25.359Z,7.61
2017-11-26T13:42:51.565Z,7.77
2017-11-26T13:45:17.782Z,7.83
2017-11-26T13:47:44.050Z,7.90
2017-11-26T13:50:10.313Z,7.91
2017-11-26T13:52:36.569Z,7.90
2017-11-26T13:55:03.046Z,7.76
2017-11-26T13:57:29.415Z,7.70
2017-11-26T13:59:55.647Z,7.75
2017-11-26T14:02:21.909Z,7.68
2017-11-26T14:04:48.132Z,7.61
2017-11-26T14:07:14.365Z,7.51
2017-11-26T14:09:40.602Z,7.51
2017-11-26T14:12:06.831Z,7.49
2017-11-26T14:14:33.067Z,7.42
2017-11-26T14:16:59.471Z,7.38
2017-11-26T14:19:25.775Z,7.41
2017-11-26T14:21:52.009Z,7.40
2017-11-26T14:24:18.279Z,7.19
2017-11-26T14:26:44.642Z,7.09
2017-11-26T14:29:10.890Z,6.99
2017-11-26T14:31:37.154Z,7.12
2017-11-26T14:34:03.440Z,7.05
2017-11-26T14:36:29.655Z,6.99
2017-11-26T14:38:55.901Z,7.01
2017-11-26T14:41:22.153Z,6.96
2017-11-26T14:43:48.388Z,6.99
2017-11-26T14:46:14.636Z,7.01
2017-11-26T14:48:40.870Z,6.99
2017-11-26T14:51:07.106Z,7.01
2017-11-26T14:53:33.384Z,7.01
2017-11-26T14:55:59.668Z,6.97
2017-11-26T14:58:25.895Z,7.00
2017-11-26T15:00:52.625Z,6.85
2017-11-26T15:03:18.870Z,6.74
2017-11-26T15:05:45.105Z,6.74
2017-11-26T15:08:11.522Z,6.71
2017-11-26T15:10:37.784Z,6.74
2017-11-26T15:13:04.009Z,6.85
2017-11-26T15:15:30.307Z,6.72
2017-11-26T15:17:56.528Z,6.77
2017-11-26T15:20:22.741Z,6.80
2017-11-26T15:22:48.993Z,6.79
2017-11-26T15:25:15.226Z,6.74
2017-11-26T15:27:41.464Z,6.79
2017-11-26T15:30:07.751Z,6.85
2017-11-26T15:32:33.978Z,6.91
2017-11-26T15:35:00.207Z,6.91
2017-11-26T15:37:26.468Z,6.95
2017-11-26T15:39:52.695Z,7.04
2017-11-26T15:42:18.924Z,6.98
2017-11-26T15:44:45.185Z,7.03
2017-11-26T15:47:11.429Z,7.06
2017-11-26T15:49:37.643Z,7.08
2017-11-26T15:52:03.930Z,7.03
2017-11-26T15:54:30.160Z,6.93
2017-11-26T15:56:56.396Z,6.86
2017-11-26T15:59:22.679Z,6.82
2017-11-26T16:01:48.994Z,6.93
2017-11-26T16:04:15.228Z,6.95
2017-11-26T16:06:41.508Z,6.96
2017-11-26T16:09:07.753Z,6.96
2017-11-26T16:11:33.996Z,6.95
2017-11-26T16:14:00.258Z,6.85
2017-11-26T16:16:26.490Z,6.89
2017-11-26T16:18:52.724Z,6.77
2017-11-26T16:21:19.008Z,6.60
2017-11-26T16:23:45.263Z,6.58
2017-11-26T16:26:11.500Z,6.56
2017-11-26T16:28:37.768Z,6.60
2017-11-26T16:31:04.037Z,6.52
2017-11-26T16:33:30.300Z,6.44
2017-11-26T16:35:56.563Z,6.37
2017-11-26T16:38:22.822Z,6.33
2017-11-26T16:40:49.262Z,6.33
2017-11-26T16:43:15.529Z,6.32
2017-11-26T16:45:41.774Z,6.32
2017-11-26T16:48:07.996Z,6.14
2017-11-26T16:50:34.280Z,6.00
2017-11-26T16:53:00.540Z,6.04
2017-11-26T16:55:26.785Z,6.11
2017-11-26T16:57:53.044Z,6.05
2017-11-26T17:00:19.275Z,6.01
2017-11-26T17:02:45.515Z,6.00
2017-11-26T17:05:11.825Z,5.98
2017-11-26T17:07:38.072Z,6.00
2017-11-26T17:10:04.315Z,5.94
2017-11-26T17:12:30.608Z,5.87
2017-11-26T17:14:56.862Z,5.86
2017-11-26T17:17:23.133Z,5.92
2017-11-26T17:19:49.401Z,5.89
2017-11-26T17:22:15.630Z,5.81
2017-11-26T17:24:41.856Z,5.87
2017-11-26T17:27:08.177Z,5.98
2017-11-26T17:29:34.424Z,6.07
2017-11-26T17:32:00.657Z,6.08
2017-11-26T17:34:26.919Z,6.16
2017-11-26T17:36:53.148Z,6.17
2017-11-26T17:39:19.375Z,6.17
2017-11-26T17:41:45.652Z,6.20
2017-11-26T17:44:11.889Z,6.18
2017-11-26T17:46:38.140Z,6.17
2017-11-26T17:49:04.414Z,6.10
2017-11-26T17:51:30.662Z,6.07
2017-11-26T17:53:56.898Z,6.03
2017-11-26T17:56:23.775Z,5.91
2017-11-26T17:58:50.008Z,5.90
2017-11-26T18:01:16.250Z,5.94
2017-11-26T18:03:42.515Z,6.06
2017-11-26T18:06:08.765Z,5.96
2017-11-26T18:08:35.008Z,5.88
2017-11-26T18:11:01.290Z,5.89
2017-11-26T18:13:27.521Z,5.83
2017-11-26T18:15:53.751Z,6.01
2017-11-26T18:18:20.023Z,6.01
2017-11-26T18:20:46.324Z,5.86
2017-11-26T18:23:12.614Z,6.04
2017-11-26T18:25:38.899Z,6.09
2017-11-26T18:28:05.154Z,6.14
2017-11-26T18:30:31.407Z,6.22
2017-11-26T18:32:57.685Z,6.16
2017-11-26T18:35:23.935Z,6.34
2017-11-26T18:37:50.179Z,6.25
2017-11-26T18:40:16.516Z,6.24
2017-11-26T18:42:42.757Z,6.33
2017-11-26T18:45:09.011Z,6.25
2017-11-26T18:47:35.344Z,6.17
2017-11-26T18:50:01.600Z,6.19
2017-11-26T18:52:27.866Z,6.26
2017-11-26T18:54:54.144Z,6.34
2017-11-26T18:57:20.378Z,6.39
2017-11-26T18:59:46.622Z,6.31
2017-11-26T19:02:12.889Z,6.34
2017-11-26T19:04:39.145Z,6.33
2017-11-26T19:07:05.439Z,6.33
2017-11-26T19:09:31.714Z,6.38
2017-11-26T19:11:57.948Z,6.36
2017-11-26T19:14:24.196Z,6.30
2017-11-26T19:16:50.472Z,6.29
2017-11-26T19:19:16.842Z,6.27
2017-11-26T19:21:43.144Z,6.25
2017-11-26T19:24:09.455Z,6.17
2017-11-26T19:26:35.714Z,6.18
2017-11-26T19:29:01.966Z,6.12
2017-11-26T19:31:28.241Z,6.12
2017-11-26T19:33:54.477Z,6.26
2017-11-26T19:36:20.845Z,6.31
2017-11-26T19:38:47.139Z,6.25
2017-11-26T19:41:13.424Z,6.02
2017-11-26T19:43:39.690Z,5.98
2017-11-26T19:46:05.930Z,5.87
2017-11-26T19:48:32.157Z,6.04
2017-11-26T19:50:58.419Z,6.14
2017-11-26T19:53:24.726Z,6.23
2017-11-26T19:55:50.981Z,6.30
2017-11-26T19:58:17.265Z,6.27
2017-11-26T20:00:43.517Z,6.23
2017-11-26T20:03:09.743Z,6.37
2017-11-26T20:05:36.024Z,6.48
2017-11-26T20:08:02.310Z,6.51
2017-11-26T20:10:28.617Z,6.56
2017-11-26T20:12:54.884Z,6.66
2017-11-26T20:15:21.124Z,6.67
2017-11-26T20:17:47.427Z,6.68
2017-11-26T20:20:13.718Z,6.71
2017-11-26T20:22:39.970Z,6.59
2017-11-26T20:25:06.393Z,6.66
2017-11-26T20:27:32.681Z,6.60
2017-11-26T20:29:58.931Z,6.67
2017-11-26T20:32:25.173Z,6.71
2017-11-26T20:34:51.517Z,6.67
2017-11-26T20:37:17.788Z,6.64
2017-11-26T20:39:44.089Z,6.62
2017-11-26T20:42:10.331Z,6.62
2017-11-26T20:44:36.582Z,6.54
2017-11-26T20:47:02.861Z,6.55
2017-11-26T20:49:29.092Z,6.61
2017-11-26T20:51:55.340Z,6.61
2017-11-26T20:54:21.609Z,6.65
2017-11-26T20:56:47.857Z,6.65
2017-11-26T20:59:14.107Z,6.61
2017-11-26T21:01:40.414Z,6.58
2017-11-26T21:04:06.649Z,6.50
2017-11-26T21:06:33.091Z,6.47
2017-11-26T21:08:59.385Z,6.59
2017-11-26T21:11:25.629Z,6.65
2017-11-26T21:13:51.856Z,6.72
2017-11-26T21:16:18.127Z,6.77
2017-11-26T21:18:44.385Z,6.72
2017-11-26T21:21:10.663Z,6.64
2017-11-26T21:23:36.933Z,6.58
2017-11-26T21:26:03.164Z,6.58
2017-11-26T21:28:29.411Z,6.55
2017-11-26T21:30:55.794Z,6.58
2017-11-26T21:33:22.061Z,6.60
2017-11-26T21:35:48.293Z,6.61
2017-11-26T21:38:14.546Z,6.63
2017-11-26T21:40:40.901Z,6.68
2017-11-26T21:43:07.171Z,6.66
2017-11-26T21:45:33.434Z,6.59
2017-11-26T21:47:59.661Z,6.55
2017-11-26T21:50:25.890Z,6.55
2017-11-26T21:52:52.177Z,6.56
2017-11-26T21:55:18.408Z,6.39
2017-11-26T21:57:44.727Z,6.47
2017-11-26T22:00:11.009Z,6.52
2017-11-26T22:02:37.278Z,6.49
2017-11-26T22:05:03.538Z,6.37
2017-11-26T22:07:29.822Z,6.35
2017-11-26T22:09:56.055Z,6.33
2017-11-26T22:12:22.314Z,6.38
2017-11-26T22:14:48.601Z,6.43
2017-11-26T22:17:14.856Z,6.38
2017-11-26T22:19:41.130Z,6.38
2017-11-26T22:22:07.421Z,6.48
2017-11-26T22:24:33.682Z,6.37
2017-11-26T22:26:59.907Z,6.30
2017-11-26T22:29:26.168Z,6.32
2017-11-26T22:31:52.546Z,6.40
2017-11-26T22:34:18.790Z,6.40
2017-11-26T22:36:45.088Z,6.43
2017-11-26T22:39:11.412Z,6.38
2017-11-26T22:41:37.653Z,6.35
2017-11-26T22:44:03.946Z,6.34
2017-11-26T22:46:30.200Z,6.33
2017-11-26T22:48:56.446Z,6.33
2017-11-26T22:51:22.732Z,6.31
2017-11-26T22:53:49.003Z,6.36
2017-11-26T22:56:15.252Z,6.27
2017-11-26T22:58:41.535Z,6.37
2017-11-26T23:01:07.787Z,6.33
2017-11-26T23:03:34.088Z,6.40
2017-11-26T23:06:00.381Z,6.39
2017-11-26T23:08:26.621Z,6.41
2017-11-26T23:10:52.859Z,6.37
2017-11-26T23:13:19.161Z,6.33
2017-11-26T23:15:45.396Z,6.31
2017-11-26T23:18:11.624Z,6.19
2017-11-26T23:20:37.899Z,6.24
2017-11-26T23:23:04.160Z,6.21
2017-11-26T23:25:30.462Z,6.21
2017-11-26T23:27:56.770Z,6.23
2017-11-26T23:30:23.053Z,6.31
2017-11-26T23:32:49.296Z,6.34
2017-11-26T23:35:15.564Z,6.18
2017-11-26T23:37:41.805Z,6.40
2017-11-26T23:40:08.116Z,6.43
2017-11-26T23:42:34.429Z,6.35
2017-11-26T23:45:00.687Z,6.39
2017-11-26T23:47:26.934Z,6.40
2017-11-26T23:49:53.252Z,6.18
2017-11-26T23:52:19.502Z,6.21
2017-11-26T23:54:45.759Z,6.15
2017-11-26T23:57:12.084Z,6.18
2017-11-26T23:59:38.313Z,6.12
